sensor_id;sensor_type;location;lat;lon;timestamp;temperature;humidity
9776;DHT22;4927;52.472;13.108;2023-04-06T00:00:17;0.00;99.90
9776;DHT22;4927;52.472;13.108;2023-04-06T00:01:18;0.00;99.90
9776;DHT22;4927;52.472;13.108;2023-04-06T00:02:20;0.00;99.90
9776;DHT22;4927;52.472;13.108;2023-04-06T00:03:22;0.00;99.90
9776;DHT22;4927;52.472;13.108;2023-04-06T00:04:24;0.00;99.90
9776;DHT22;4927;52.472;13.108;2023-04-06T00:05:25;0.00;99.90
9776;DHT22;4927;52.472;13.108;2023-04-06T00:06:27;0.00;99.90
9776;DHT22;4927;52.472;13.108;2023-04-06T00:07:29;0.00;99.90
9776;DHT22;4927;52.472;13.108;2023-04-06T00:08:31;0.00;99.90
9776;DHT22;4927;52.472;13.108;2023-04-06T00:09:32;0.00;99.90
9776;DHT22;4927;52.472;13.108;2023-04-06T00:10:34;0.00;99.90
9776;DHT22;4927;52.472;13.108;2023-04-06T00:11:37;0.00;99.90
9776;DHT22;4927;52.472;13.108;2023-04-06T00:12:39;0.00;99.90
9776;DHT22;4927;52.472;13.108;2023-04-06T00:13:40;-0.10;99.90
9776;DHT22;4927;52.472;13.108;2023-04-06T00:14:43;-0.10;99.90
9776;DHT22;4927;52.472;13.108;2023-04-06T00:15:51;-0.10;99.90
9776;DHT22;4927;52.472;13.108;2023-04-06T00:16:53;-0.10;99.90
9776;DHT22;4927;52.472;13.108;2023-04-06T00:17:55;-0.10;99.90
9776;DHT22;4927;52.472;13.108;2023-04-06T00:19:01;-0.10;99.90
9776;DHT22;4927;52.472;13.108;2023-04-06T00:20:04;-0.10;99.90
9776;DHT22;4927;52.472;13.108;2023-04-06T00:21:07;-0.10;99.90
9776;DHT22;4927;52.472;13.108;2023-04-06T00:22:10;-0.10;99.90
9776;DHT22;4927;52.472;13.108;2023-04-06T00:23:11;-0.20;99.90
9776;DHT22;4927;52.472;13.108;2023-04-06T00:24:13;-0.20;99.90
9776;DHT22;4927;52.472;13.108;2023-04-06T00:25:15;-0.20;99.90
9776;DHT22;4927;52.472;13.108;2023-04-06T00:26:17;-0.20;99.90
9776;DHT22;4927;52.472;13.108;2023-04-06T00:27:19;-0.20;99.90
9776;DHT22;4927;52.472;13.108;2023-04-06T00:28:21;-0.20;99.90
9776;DHT22;4927;52.472;13.108;2023-04-06T00:29:23;-0.30;99.90
9776;DHT22;4927;52.472;13.108;2023-04-06T00:30:25;-0.30;99.90
9776;DHT22;4927;52.472;13.108;2023-04-06T00:31:28;-0.30;99.90
9776;DHT22;4927;52.472;13.108;2023-04-06T00:32:36;-0.30;99.90
9776;DHT22;4927;52.472;13.108;2023-04-06T00:33:38;-0.30;99.90
9776;DHT22;4927;52.472;13.108;2023-04-06T00:34:40;-0.30;99.90
9776;DHT22;4927;52.472;13.108;2023-04-06T00:35:41;-0.30;99.90
9776;DHT22;4927;52.472;13.108;2023-04-06T00:36:43;-0.40;99.90
9776;DHT22;4927;52.472;13.108;2023-04-06T00:37:46;-0.40;99.90
9776;DHT22;4927;52.472;13.108;2023-04-06T00:38:47;-0.40;99.90
9776;DHT22;4927;52.472;13.108;2023-04-06T00:39:49;-0.40;99.90
9776;DHT22;4927;52.472;13.108;2023-04-06T00:40:50;-0.40;99.90
9776;DHT22;4927;52.472;13.108;2023-04-06T00:41:52;-0.40;99.90
9776;DHT22;4927;52.472;13.108;2023-04-06T00:42:55;-0.50;99.90
9776;DHT22;4927;52.472;13.108;2023-04-06T00:43:56;-0.50;99.90
9776;DHT22;4927;52.472;13.108;2023-04-06T00:44:59;-0.50;99.90
9776;DHT22;4927;52.472;13.108;2023-04-06T00:46:01;-0.50;99.90
9776;DHT22;4927;52.472;13.108;2023-04-06T00:47:02;-0.50;99.90
9776;DHT22;4927;52.472;13.108;2023-04-06T00:48:05;-0.50;99.90
9776;DHT22;4927;52.472;13.108;2023-04-06T00:49:06;-0.50;99.90
9776;DHT22;4927;52.472;13.108;2023-04-06T00:50:09;-0.50;99.90
9776;DHT22;4927;52.472;13.108;2023-04-06T00:51:11;-0.50;99.90
9776;DHT22;4927;52.472;13.108;2023-04-06T00:52:12;-0.60;99.90
9776;DHT22;4927;52.472;13.108;2023-04-06T00:53:15;-0.60;99.90
9776;DHT22;4927;52.472;13.108;2023-04-06T00:54:17;-0.60;99.90
9776;DHT22;4927;52.472;13.108;2023-04-06T00:55:19;-0.60;99.90
9776;DHT22;4927;52.472;13.108;2023-04-06T00:56:20;-0.60;99.90
9776;DHT22;4927;52.472;13.108;2023-04-06T00:57:22;-0.60;99.90
9776;DHT22;4927;52.472;13.108;2023-04-06T00:58:24;-0.70;99.90
9776;DHT22;4927;52.472;13.108;2023-04-06T00:59:27;-0.70;99.90
9776;DHT22;4927;52.472;13.108;2023-04-06T01:00:27;-0.70;99.90
9776;DHT22;4927;52.472;13.108;2023-04-06T01:01:29;-0.70;99.90
9776;DHT22;4927;52.472;13.108;2023-04-06T01:02:31;-0.70;99.90
9776;DHT22;4927;52.472;13.108;2023-04-06T01:03:33;-0.70;99.90
9776;DHT22;4927;52.472;13.108;2023-04-06T01:04:35;-0.70;99.90
9776;DHT22;4927;52.472;13.108;2023-04-06T01:05:37;-0.70;99.90
9776;DHT22;4927;52.472;13.108;2023-04-06T01:06:39;-0.70;99.90
9776;DHT22;4927;52.472;13.108;2023-04-06T01:07:41;-0.70;99.90
9776;DHT22;4927;52.472;13.108;2023-04-06T01:08:42;-0.70;99.90
9776;DHT22;4927;52.472;13.108;2023-04-06T01:09:44;-0.70;99.90
9776;DHT22;4927;52.472;13.108;2023-04-06T01:10:46;-0.80;99.90
9776;DHT22;4927;52.472;13.108;2023-04-06T01:11:48;-0.70;99.90
9776;DHT22;4927;52.472;13.108;2023-04-06T01:12:49;-0.80;99.90
9776;DHT22;4927;52.472;13.108;2023-04-06T01:13:52;-0.80;99.90
9776;DHT22;4927;52.472;13.108;2023-04-06T01:14:54;-0.80;99.90
9776;DHT22;4927;52.472;13.108;2023-04-06T01:15:56;-0.80;99.90
9776;DHT22;4927;52.472;13.108;2023-04-06T01:16:59;-0.80;99.90
9776;DHT22;4927;52.472;13.108;2023-04-06T01:18:00;-0.80;99.90
9776;DHT22;4927;52.472;13.108;2023-04-06T01:19:08;-0.80;99.90
9776;DHT22;4927;52.472;13.108;2023-04-06T01:20:09;-0.80;99.90
9776;DHT22;4927;52.472;13.108;2023-04-06T01:21:11;-0.80;99.90
9776;DHT22;4927;52.472;13.108;2023-04-06T01:22:15;-0.80;99.90
9776;DHT22;4927;52.472;13.108;2023-04-06T01:23:15;-0.80;99.90
9776;DHT22;4927;52.472;13.108;2023-04-06T01:24:17;-0.80;99.90
9776;DHT22;4927;52.472;13.108;2023-04-06T01:25:19;-0.80;99.90
9776;DHT22;4927;52.472;13.108;2023-04-06T01:26:21;-0.80;99.90
9776;DHT22;4927;52.472;13.108;2023-04-06T01:27:22;-0.90;99.90
9776;DHT22;4927;52.472;13.108;2023-04-06T01:28:24;-0.90;99.90
9776;DHT22;4927;52.472;13.108;2023-04-06T01:29:26;-0.90;99.90
9776;DHT22;4927;52.472;13.108;2023-04-06T01:30:28;-0.90;99.90
9776;DHT22;4927;52.472;13.108;2023-04-06T01:31:30;-0.90;99.90
9776;DHT22;4927;52.472;13.108;2023-04-06T01:32:32;-0.90;99.90
9776;DHT22;4927;52.472;13.108;2023-04-06T01:33:34;-0.90;99.90
9776;DHT22;4927;52.472;13.108;2023-04-06T01:34:36;-0.90;99.90
9776;DHT22;4927;52.472;13.108;2023-04-06T01:35:38;-1.00;99.90
9776;DHT22;4927;52.472;13.108;2023-04-06T01:36:40;-1.00;99.90
9776;DHT22;4927;52.472;13.108;2023-04-06T01:37:41;-1.00;99.90
9776;DHT22;4927;52.472;13.108;2023-04-06T01:38:43;-1.00;99.90
9776;DHT22;4927;52.472;13.108;2023-04-06T01:39:45;-1.00;99.90
9776;DHT22;4927;52.472;13.108;2023-04-06T01:40:50;-1.00;99.90
9776;DHT22;4927;52.472;13.108;2023-04-06T01:41:52;-1.00;99.90
9776;DHT22;4927;52.472;13.108;2023-04-06T01:42:54;-1.00;99.90
9776;DHT22;4927;52.472;13.108;2023-04-06T01:43:56;-1.00;99.90
9776;DHT22;4927;52.472;13.108;2023-04-06T01:44:58;-1.10;99.90
9776;DHT22;4927;52.472;13.108;2023-04-06T01:46:00;-1.00;99.90
9776;DHT22;4927;52.472;13.108;2023-04-06T01:47:02;-1.00;99.90
9776;DHT22;4927;52.472;13.108;2023-04-06T01:48:04;-1.10;99.90
9776;DHT22;4927;52.472;13.108;2023-04-06T01:49:06;-1.10;99.90
9776;DHT22;4927;52.472;13.108;2023-04-06T01:50:09;-1.10;99.90
9776;DHT22;4927;52.472;13.108;2023-04-06T01:51:11;-1.10;99.90
9776;DHT22;4927;52.472;13.108;2023-04-06T01:52:13;-1.10;99.90
9776;DHT22;4927;52.472;13.108;2023-04-06T01:53:15;-1.10;99.90
9776;DHT22;4927;52.472;13.108;2023-04-06T01:54:17;-1.10;99.90
9776;DHT22;4927;52.472;13.108;2023-04-06T01:55:19;-1.20;99.90
9776;DHT22;4927;52.472;13.108;2023-04-06T01:56:21;-1.20;99.90
9776;DHT22;4927;52.472;13.108;2023-04-06T01:57:23;-1.20;99.90
9776;DHT22;4927;52.472;13.108;2023-04-06T01:58:24;-1.30;99.90
9776;DHT22;4927;52.472;13.108;2023-04-06T01:59:26;-1.30;99.90
9776;DHT22;4927;52.472;13.108;2023-04-06T02:00:28;-1.30;99.90
9776;DHT22;4927;52.472;13.108;2023-04-06T02:01:31;-1.30;99.90
9776;DHT22;4927;52.472;13.108;2023-04-06T02:02:33;-1.40;99.90
9776;DHT22;4927;52.472;13.108;2023-04-06T02:03:35;-1.40;99.90
9776;DHT22;4927;52.472;13.108;2023-04-06T02:04:37;-1.40;99.90
9776;DHT22;4927;52.472;13.108;2023-04-06T02:05:38;-1.40;99.90
9776;DHT22;4927;52.472;13.108;2023-04-06T02:06:40;-1.40;99.90
9776;DHT22;4927;52.472;13.108;2023-04-06T02:07:42;-1.40;99.90
9776;DHT22;4927;52.472;13.108;2023-04-06T02:09:02;-1.40;99.90
9776;DHT22;4927;52.472;13.108;2023-04-06T02:10:06;-1.40;99.90
9776;DHT22;4927;52.472;13.108;2023-04-06T02:11:07;-1.40;99.90
9776;DHT22;4927;52.472;13.108;2023-04-06T02:12:09;-1.40;99.90
9776;DHT22;4927;52.472;13.108;2023-04-06T02:13:11;-1.40;99.90
9776;DHT22;4927;52.472;13.108;2023-04-06T02:14:13;-1.50;99.90
9776;DHT22;4927;52.472;13.108;2023-04-06T02:15:16;-1.50;99.90
9776;DHT22;4927;52.472;13.108;2023-04-06T02:16:18;-1.40;99.90
9776;DHT22;4927;52.472;13.108;2023-04-06T02:17:20;-1.50;99.90
9776;DHT22;4927;52.472;13.108;2023-04-06T02:18:22;-1.50;99.90
9776;DHT22;4927;52.472;13.108;2023-04-06T02:19:23;-1.50;99.90
9776;DHT22;4927;52.472;13.108;2023-04-06T02:20:25;-1.50;99.90
9776;DHT22;4927;52.472;13.108;2023-04-06T02:21:27;-1.50;99.90
9776;DHT22;4927;52.472;13.108;2023-04-06T02:22:29;-1.50;99.90
9776;DHT22;4927;52.472;13.108;2023-04-06T02:23:30;-1.50;99.90
9776;DHT22;4927;52.472;13.108;2023-04-06T02:24:32;-1.50;99.90
9776;DHT22;4927;52.472;13.108;2023-04-06T02:25:34;-1.50;99.90
9776;DHT22;4927;52.472;13.108;2023-04-06T02:26:36;-1.50;99.90
9776;DHT22;4927;52.472;13.108;2023-04-06T02:27:38;-1.50;99.90
9776;DHT22;4927;52.472;13.108;2023-04-06T02:28:39;-1.50;99.90
9776;DHT22;4927;52.472;13.108;2023-04-06T02:29:41;-1.50;99.90
9776;DHT22;4927;52.472;13.108;2023-04-06T02:30:43;-1.50;99.90
9776;DHT22;4927;52.472;13.108;2023-04-06T02:31:45;-1.50;99.90
9776;DHT22;4927;52.472;13.108;2023-04-06T02:32:46;-1.50;99.90
9776;DHT22;4927;52.472;13.108;2023-04-06T02:33:48;-1.50;99.90
9776;DHT22;4927;52.472;13.108;2023-04-06T02:34:50;-1.50;99.90
9776;DHT22;4927;52.472;13.108;2023-04-06T02:35:52;-1.50;99.90
9776;DHT22;4927;52.472;13.108;2023-04-06T02:36:53;-1.50;99.90
9776;DHT22;4927;52.472;13.108;2023-04-06T02:37:55;-1.50;99.90
9776;DHT22;4927;52.472;13.108;2023-04-06T02:38:58;-1.50;99.90
9776;DHT22;4927;52.472;13.108;2023-04-06T02:40:00;-1.50;99.90
9776;DHT22;4927;52.472;13.108;2023-04-06T02:41:02;-1.50;99.90
9776;DHT22;4927;52.472;13.108;2023-04-06T02:42:04;-1.50;99.90
9776;DHT22;4927;52.472;13.108;2023-04-06T02:43:06;-1.60;99.90
9776;DHT22;4927;52.472;13.108;2023-04-06T02:44:08;-1.60;99.90
9776;DHT22;4927;52.472;13.108;2023-04-06T02:45:10;-1.60;99.90
9776;DHT22;4927;52.472;13.108;2023-04-06T02:46:11;-1.60;99.90
9776;DHT22;4927;52.472;13.108;2023-04-06T02:47:13;-1.60;99.90
9776;DHT22;4927;52.472;13.108;2023-04-06T02:48:15;-1.60;99.90
9776;DHT22;4927;52.472;13.108;2023-04-06T02:49:17;-1.70;99.90
9776;DHT22;4927;52.472;13.108;2023-04-06T02:50:19;-1.70;99.90
9776;DHT22;4927;52.472;13.108;2023-04-06T02:51:20;-1.70;99.90
9776;DHT22;4927;52.472;13.108;2023-04-06T02:52:22;-1.70;99.90
9776;DHT22;4927;52.472;13.108;2023-04-06T02:53:24;-1.70;99.90
9776;DHT22;4927;52.472;13.108;2023-04-06T02:54:26;-1.70;99.90
9776;DHT22;4927;52.472;13.108;2023-04-06T02:55:27;-1.70;99.90
9776;DHT22;4927;52.472;13.108;2023-04-06T02:56:29;-1.70;99.90
9776;DHT22;4927;52.472;13.108;2023-04-06T02:57:31;-1.70;99.90
9776;DHT22;4927;52.472;13.108;2023-04-06T02:58:32;-1.70;99.90
9776;DHT22;4927;52.472;13.108;2023-04-06T02:59:34;-1.70;99.90
9776;DHT22;4927;52.472;13.108;2023-04-06T03:00:36;-1.70;99.90
9776;DHT22;4927;52.472;13.108;2023-04-06T03:01:38;-1.70;99.90
9776;DHT22;4927;52.472;13.108;2023-04-06T03:02:39;-1.70;99.90
9776;DHT22;4927;52.472;13.108;2023-04-06T03:03:41;-1.70;99.90
9776;DHT22;4927;52.472;13.108;2023-04-06T03:04:43;-1.80;99.90
9776;DHT22;4927;52.472;13.108;2023-04-06T03:05:45;-1.80;99.90
9776;DHT22;4927;52.472;13.108;2023-04-06T03:06:46;-1.70;99.90
9776;DHT22;4927;52.472;13.108;2023-04-06T03:07:48;-1.80;99.90
9776;DHT22;4927;52.472;13.108;2023-04-06T03:08:50;-1.80;99.90
9776;DHT22;4927;52.472;13.108;2023-04-06T03:09:52;-1.80;99.90
9776;DHT22;4927;52.472;13.108;2023-04-06T03:10:54;-1.80;99.90
9776;DHT22;4927;52.472;13.108;2023-04-06T03:11:56;-1.80;99.90
9776;DHT22;4927;52.472;13.108;2023-04-06T03:12:58;-1.80;99.90
9776;DHT22;4927;52.472;13.108;2023-04-06T03:14:00;-1.80;99.90
9776;DHT22;4927;52.472;13.108;2023-04-06T03:15:03;-1.80;99.90
9776;DHT22;4927;52.472;13.108;2023-04-06T03:16:06;-1.80;99.90
9776;DHT22;4927;52.472;13.108;2023-04-06T03:17:09;-1.80;99.90
9776;DHT22;4927;52.472;13.108;2023-04-06T03:18:10;-1.80;99.90
9776;DHT22;4927;52.472;13.108;2023-04-06T03:19:12;-1.80;99.90
9776;DHT22;4927;52.472;13.108;2023-04-06T03:20:15;-1.80;99.90
9776;DHT22;4927;52.472;13.108;2023-04-06T03:21:16;-1.80;99.90
9776;DHT22;4927;52.472;13.108;2023-04-06T03:22:19;-1.90;99.90
9776;DHT22;4927;52.472;13.108;2023-04-06T03:23:21;-1.90;99.90
9776;DHT22;4927;52.472;13.108;2023-04-06T03:24:23;-1.90;99.90
9776;DHT22;4927;52.472;13.108;2023-04-06T03:25:25;-1.90;99.90
9776;DHT22;4927;52.472;13.108;2023-04-06T03:26:27;-1.90;99.90
9776;DHT22;4927;52.472;13.108;2023-04-06T03:27:28;-1.90;99.90
9776;DHT22;4927;52.472;13.108;2023-04-06T03:28:30;-1.90;99.90
9776;DHT22;4927;52.472;13.108;2023-04-06T03:29:33;-1.90;99.90
9776;DHT22;4927;52.472;13.108;2023-04-06T03:30:34;-1.90;99.90
9776;DHT22;4927;52.472;13.108;2023-04-06T03:31:37;-1.90;99.90
9776;DHT22;4927;52.472;13.108;2023-04-06T03:32:39;-1.90;99.90
9776;DHT22;4927;52.472;13.108;2023-04-06T03:33:41;-1.90;99.90
9776;DHT22;4927;52.472;13.108;2023-04-06T03:34:43;-1.90;99.90
9776;DHT22;4927;52.472;13.108;2023-04-06T03:35:45;-1.90;99.90
9776;DHT22;4927;52.472;13.108;2023-04-06T03:36:48;-2.00;99.90
9776;DHT22;4927;52.472;13.108;2023-04-06T03:37:50;-2.00;99.90
9776;DHT22;4927;52.472;13.108;2023-04-06T03:38:53;-2.00;99.90
9776;DHT22;4927;52.472;13.108;2023-04-06T03:39:55;-2.00;99.90
9776;DHT22;4927;52.472;13.108;2023-04-06T03:40:58;-2.00;99.90
9776;DHT22;4927;52.472;13.108;2023-04-06T03:41:59;-2.00;99.90
9776;DHT22;4927;52.472;13.108;2023-04-06T03:43:01;-2.00;99.90
9776;DHT22;4927;52.472;13.108;2023-04-06T03:44:11;-2.00;99.90
9776;DHT22;4927;52.472;13.108;2023-04-06T03:45:12;-2.10;99.90
9776;DHT22;4927;52.472;13.108;2023-04-06T03:46:14;-2.10;99.90
9776;DHT22;4927;52.472;13.108;2023-04-06T03:47:16;-2.10;99.90
9776;DHT22;4927;52.472;13.108;2023-04-06T03:48:18;-2.10;99.90
9776;DHT22;4927;52.472;13.108;2023-04-06T03:49:21;-2.10;99.90
9776;DHT22;4927;52.472;13.108;2023-04-06T03:50:23;-2.10;99.90
9776;DHT22;4927;52.472;13.108;2023-04-06T03:51:25;-2.10;99.90
9776;DHT22;4927;52.472;13.108;2023-04-06T03:52:27;-2.10;99.90
9776;DHT22;4927;52.472;13.108;2023-04-06T03:53:29;-2.10;99.90
9776;DHT22;4927;52.472;13.108;2023-04-06T03:54:30;-2.10;99.90
9776;DHT22;4927;52.472;13.108;2023-04-06T03:55:33;-2.10;99.90
9776;DHT22;4927;52.472;13.108;2023-04-06T03:56:35;-2.10;99.90
9776;DHT22;4927;52.472;13.108;2023-04-06T03:57:37;-2.10;99.90
9776;DHT22;4927;52.472;13.108;2023-04-06T03:58:39;-2.10;99.90
9776;DHT22;4927;52.472;13.108;2023-04-06T03:59:41;-2.10;99.90
9776;DHT22;4927;52.472;13.108;2023-04-06T04:00:43;-2.10;99.90
9776;DHT22;4927;52.472;13.108;2023-04-06T04:01:45;-2.20;99.90
9776;DHT22;4927;52.472;13.108;2023-04-06T04:02:47;-2.10;99.90
9776;DHT22;4927;52.472;13.108;2023-04-06T04:03:50;-2.10;99.90
9776;DHT22;4927;52.472;13.108;2023-04-06T04:04:51;-2.10;99.90
9776;DHT22;4927;52.472;13.108;2023-04-06T04:05:53;-2.20;99.90
9776;DHT22;4927;52.472;13.108;2023-04-06T04:06:55;-2.20;99.90
9776;DHT22;4927;52.472;13.108;2023-04-06T04:07:57;-2.20;99.90
9776;DHT22;4927;52.472;13.108;2023-04-06T04:09:00;-2.20;99.90
9776;DHT22;4927;52.472;13.108;2023-04-06T04:10:03;-2.20;99.90
9776;DHT22;4927;52.472;13.108;2023-04-06T04:11:05;-2.20;99.90
9776;DHT22;4927;52.472;13.108;2023-04-06T04:12:07;-2.20;99.90
9776;DHT22;4927;52.472;13.108;2023-04-06T04:13:08;-2.20;99.90
9776;DHT22;4927;52.472;13.108;2023-04-06T04:14:10;-2.20;99.90
9776;DHT22;4927;52.472;13.108;2023-04-06T04:15:13;-2.20;99.90
9776;DHT22;4927;52.472;13.108;2023-04-06T04:16:14;-2.20;99.90
9776;DHT22;4927;52.472;13.108;2023-04-06T04:17:16;-2.20;99.90
9776;DHT22;4927;52.472;13.108;2023-04-06T04:18:19;-2.20;99.90
9776;DHT22;4927;52.472;13.108;2023-04-06T04:19:20;-2.20;99.90
9776;DHT22;4927;52.472;13.108;2023-04-06T04:20:22;-2.30;99.90
9776;DHT22;4927;52.472;13.108;2023-04-06T04:21:24;-2.30;99.90
9776;DHT22;4927;52.472;13.108;2023-04-06T04:22:26;-2.30;99.90
9776;DHT22;4927;52.472;13.108;2023-04-06T04:23:27;-2.30;99.90
9776;DHT22;4927;52.472;13.108;2023-04-06T04:24:30;-2.30;99.90
9776;DHT22;4927;52.472;13.108;2023-04-06T04:25:32;-2.30;99.90
9776;DHT22;4927;52.472;13.108;2023-04-06T04:26:33;-2.30;99.90
9776;DHT22;4927;52.472;13.108;2023-04-06T04:27:36;-2.30;99.90
9776;DHT22;4927;52.472;13.108;2023-04-06T04:28:38;-2.30;99.90
9776;DHT22;4927;52.472;13.108;2023-04-06T04:29:40;-2.30;99.90
9776;DHT22;4927;52.472;13.108;2023-04-06T04:30:42;-2.30;99.90
9776;DHT22;4927;52.472;13.108;2023-04-06T04:31:43;-2.30;99.90
9776;DHT22;4927;52.472;13.108;2023-04-06T04:32:45;-2.30;99.90
9776;DHT22;4927;52.472;13.108;2023-04-06T04:33:47;-2.30;99.90
9776;DHT22;4927;52.472;13.108;2023-04-06T04:34:49;-2.30;99.90
9776;DHT22;4927;52.472;13.108;2023-04-06T04:35:50;-2.30;99.90
9776;DHT22;4927;52.472;13.108;2023-04-06T04:36:52;-2.30;99.90
9776;DHT22;4927;52.472;13.108;2023-04-06T04:38:01;-2.30;99.90
9776;DHT22;4927;52.472;13.108;2023-04-06T04:39:02;-2.30;99.90
9776;DHT22;4927;52.472;13.108;2023-04-06T04:40:06;-2.30;99.90
9776;DHT22;4927;52.472;13.108;2023-04-06T04:41:09;-2.30;99.90
9776;DHT22;4927;52.472;13.108;2023-04-06T04:42:11;-2.30;99.90
9776;DHT22;4927;52.472;13.108;2023-04-06T04:43:14;-2.30;99.90
9776;DHT22;4927;52.472;13.108;2023-04-06T04:44:15;-2.30;99.90
9776;DHT22;4927;52.472;13.108;2023-04-06T04:45:17;-2.30;99.90
9776;DHT22;4927;52.472;13.108;2023-04-06T04:46:19;-2.30;99.90
9776;DHT22;4927;52.472;13.108;2023-04-06T04:47:21;-2.30;99.90
9776;DHT22;4927;52.472;13.108;2023-04-06T04:48:24;-2.30;99.90
9776;DHT22;4927;52.472;13.108;2023-04-06T04:49:25;-2.30;99.90
9776;DHT22;4927;52.472;13.108;2023-04-06T04:50:27;-2.30;99.90
9776;DHT22;4927;52.472;13.108;2023-04-06T04:51:29;-2.30;99.90
9776;DHT22;4927;52.472;13.108;2023-04-06T04:52:31;-2.30;99.90
9776;DHT22;4927;52.472;13.108;2023-04-06T04:53:33;-2.30;99.90
9776;DHT22;4927;52.472;13.108;2023-04-06T04:54:36;-2.30;99.90
9776;DHT22;4927;52.472;13.108;2023-04-06T04:55:37;-2.30;99.90
9776;DHT22;4927;52.472;13.108;2023-04-06T04:56:40;-2.30;99.90
9776;DHT22;4927;52.472;13.108;2023-04-06T04:57:42;-2.30;99.90
9776;DHT22;4927;52.472;13.108;2023-04-06T04:58:44;-2.30;99.90
9776;DHT22;4927;52.472;13.108;2023-04-06T04:59:46;-2.30;99.90
9776;DHT22;4927;52.472;13.108;2023-04-06T05:00:47;-2.30;99.90
9776;DHT22;4927;52.472;13.108;2023-04-06T05:01:50;-2.30;99.90
9776;DHT22;4927;52.472;13.108;2023-04-06T05:02:52;-2.30;99.90
9776;DHT22;4927;52.472;13.108;2023-04-06T05:03:54;-2.30;99.90
9776;DHT22;4927;52.472;13.108;2023-04-06T05:04:56;-2.30;99.90
9776;DHT22;4927;52.472;13.108;2023-04-06T05:05:59;-2.20;99.90
9776;DHT22;4927;52.472;13.108;2023-04-06T05:07:06;-2.30;99.90
9776;DHT22;4927;52.472;13.108;2023-04-06T05:08:08;-2.20;99.90
9776;DHT22;4927;52.472;13.108;2023-04-06T05:09:09;-2.20;99.90
9776;DHT22;4927;52.472;13.108;2023-04-06T05:10:11;-2.20;99.90
9776;DHT22;4927;52.472;13.108;2023-04-06T05:11:13;-2.20;99.90
9776;DHT22;4927;52.472;13.108;2023-04-06T05:12:15;-2.20;99.90
9776;DHT22;4927;52.472;13.108;2023-04-06T05:13:17;-2.20;99.90
9776;DHT22;4927;52.472;13.108;2023-04-06T05:14:18;-2.20;99.90
9776;DHT22;4927;52.472;13.108;2023-04-06T05:15:20;-2.10;99.90
9776;DHT22;4927;52.472;13.108;2023-04-06T05:16:22;-2.10;99.90
9776;DHT22;4927;52.472;13.108;2023-04-06T05:17:23;-2.10;99.90
9776;DHT22;4927;52.472;13.108;2023-04-06T05:18:26;-2.00;99.90
9776;DHT22;4927;52.472;13.108;2023-04-06T05:19:29;-2.00;99.90
9776;DHT22;4927;52.472;13.108;2023-04-06T05:20:30;-1.90;99.90
9776;DHT22;4927;52.472;13.108;2023-04-06T05:21:32;-1.90;99.90
9776;DHT22;4927;52.472;13.108;2023-04-06T05:22:33;-1.90;99.90
9776;DHT22;4927;52.472;13.108;2023-04-06T05:23:35;-1.80;99.90
9776;DHT22;4927;52.472;13.108;2023-04-06T05:24:38;-1.70;99.90
9776;DHT22;4927;52.472;13.108;2023-04-06T05:25:39;-1.80;99.90
9776;DHT22;4927;52.472;13.108;2023-04-06T05:26:41;-1.70;99.90
9776;DHT22;4927;52.472;13.108;2023-04-06T05:27:43;-1.70;99.90
9776;DHT22;4927;52.472;13.108;2023-04-06T05:28:45;-1.70;99.90
9776;DHT22;4927;52.472;13.108;2023-04-06T05:29:46;-1.60;99.90
9776;DHT22;4927;52.472;13.108;2023-04-06T05:30:48;-1.60;99.90
9776;DHT22;4927;52.472;13.108;2023-04-06T05:31:50;-1.60;99.90
9776;DHT22;4927;52.472;13.108;2023-04-06T05:32:52;-1.50;99.90
9776;DHT22;4927;52.472;13.108;2023-04-06T05:33:53;-1.50;99.90
9776;DHT22;4927;52.472;13.108;2023-04-06T05:34:56;-1.40;99.90
9776;DHT22;4927;52.472;13.108;2023-04-06T05:35:58;-1.40;99.90
9776;DHT22;4927;52.472;13.108;2023-04-06T05:37:00;-1.30;99.90
9776;DHT22;4927;52.472;13.108;2023-04-06T05:38:02;-1.30;99.90
9776;DHT22;4927;52.472;13.108;2023-04-06T05:39:04;-1.30;99.90
9776;DHT22;4927;52.472;13.108;2023-04-06T05:40:06;-1.30;99.90
9776;DHT22;4927;52.472;13.108;2023-04-06T05:41:09;-1.20;99.90
9776;DHT22;4927;52.472;13.108;2023-04-06T05:42:11;-1.10;99.90
9776;DHT22;4927;52.472;13.108;2023-04-06T05:43:20;-1.10;99.90
9776;DHT22;4927;52.472;13.108;2023-04-06T05:44:22;-1.10;99.90
9776;DHT22;4927;52.472;13.108;2023-04-06T05:45:24;-1.00;99.90
9776;DHT22;4927;52.472;13.108;2023-04-06T05:46:26;-0.90;99.90
9776;DHT22;4927;52.472;13.108;2023-04-06T05:47:28;-0.90;99.90
9776;DHT22;4927;52.472;13.108;2023-04-06T05:48:30;-0.80;99.90
9776;DHT22;4927;52.472;13.108;2023-04-06T05:49:32;-0.80;99.90
9776;DHT22;4927;52.472;13.108;2023-04-06T05:50:33;-0.70;99.90
9776;DHT22;4927;52.472;13.108;2023-04-06T05:51:35;-0.70;99.90
9776;DHT22;4927;52.472;13.108;2023-04-06T05:52:37;-0.40;99.90
9776;DHT22;4927;52.472;13.108;2023-04-06T05:53:39;-0.60;99.90
9776;DHT22;4927;52.472;13.108;2023-04-06T05:54:47;-0.50;99.90
9776;DHT22;4927;52.472;13.108;2023-04-06T05:55:49;-0.50;99.90
9776;DHT22;4927;52.472;13.108;2023-04-06T05:56:51;-0.40;99.90
9776;DHT22;4927;52.472;13.108;2023-04-06T05:57:52;-0.30;99.90
9776;DHT22;4927;52.472;13.108;2023-04-06T05:58:54;-0.30;99.90
9776;DHT22;4927;52.472;13.108;2023-04-06T05:59:56;-0.20;99.90
9776;DHT22;4927;52.472;13.108;2023-04-06T06:01:00;-0.10;99.90
9776;DHT22;4927;52.472;13.108;2023-04-06T06:02:01;-0.10;99.90
9776;DHT22;4927;52.472;13.108;2023-04-06T06:03:03;0.00;99.90
9776;DHT22;4927;52.472;13.108;2023-04-06T06:04:05;0.00;99.90
9776;DHT22;4927;52.472;13.108;2023-04-06T06:05:07;0.10;99.90
9776;DHT22;4927;52.472;13.108;2023-04-06T06:06:09;0.20;99.90
9776;DHT22;4927;52.472;13.108;2023-04-06T06:07:11;0.20;99.90
9776;DHT22;4927;52.472;13.108;2023-04-06T06:08:13;0.30;99.90
9776;DHT22;4927;52.472;13.108;2023-04-06T06:09:15;0.50;99.90
9776;DHT22;4927;52.472;13.108;2023-04-06T06:10:18;0.50;99.90
9776;DHT22;4927;52.472;13.108;2023-04-06T06:11:20;0.60;99.90
9776;DHT22;4927;52.472;13.108;2023-04-06T06:12:23;0.70;99.90
9776;DHT22;4927;52.472;13.108;2023-04-06T06:13:24;0.70;99.90
9776;DHT22;4927;52.472;13.108;2023-04-06T06:14:26;0.80;99.90
9776;DHT22;4927;52.472;13.108;2023-04-06T06:15:28;0.80;99.90
9776;DHT22;4927;52.472;13.108;2023-04-06T06:16:30;0.90;99.90
9776;DHT22;4927;52.472;13.108;2023-04-06T06:17:31;1.00;99.90
9776;DHT22;4927;52.472;13.108;2023-04-06T06:18:33;1.10;99.90
9776;DHT22;4927;52.472;13.108;2023-04-06T06:19:35;1.20;99.90
9776;DHT22;4927;52.472;13.108;2023-04-06T06:20:37;1.30;99.90
9776;DHT22;4927;52.472;13.108;2023-04-06T06:21:38;1.40;99.90
9776;DHT22;4927;52.472;13.108;2023-04-06T06:22:40;1.50;99.90
9776;DHT22;4927;52.472;13.108;2023-04-06T06:23:42;1.50;99.90
9776;DHT22;4927;52.472;13.108;2023-04-06T06:24:44;1.60;99.90
9776;DHT22;4927;52.472;13.108;2023-04-06T06:25:45;1.70;99.90
9776;DHT22;4927;52.472;13.108;2023-04-06T06:26:47;1.80;99.90
9776;DHT22;4927;52.472;13.108;2023-04-06T06:27:49;1.90;99.90
9776;DHT22;4927;52.472;13.108;2023-04-06T06:28:51;2.10;99.90
9776;DHT22;4927;52.472;13.108;2023-04-06T06:29:53;2.10;99.90
9776;DHT22;4927;52.472;13.108;2023-04-06T06:30:55;2.20;99.90
9776;DHT22;4927;52.472;13.108;2023-04-06T06:31:57;2.20;99.90
9776;DHT22;4927;52.472;13.108;2023-04-06T06:32:59;2.30;99.90
9776;DHT22;4927;52.472;13.108;2023-04-06T06:34:00;2.40;99.90
9776;DHT22;4927;52.472;13.108;2023-04-06T06:35:03;2.50;99.90
9776;DHT22;4927;52.472;13.108;2023-04-06T06:36:06;2.60;99.90
9776;DHT22;4927;52.472;13.108;2023-04-06T06:37:08;2.60;99.90
9776;DHT22;4927;52.472;13.108;2023-04-06T06:38:10;2.70;99.90
9776;DHT22;4927;52.472;13.108;2023-04-06T06:39:12;2.80;99.90